Welcome to the New NWS' Forecast!
Most changes are behind the scenes, but click here for differences you might notice.

Terminal Aerodrome Forecast (TAF)

Issued by National Weather Service (NWS)

                            
012 
FTUS42 KKEY 191455 AAB
TAFMTH
TAF AMD
KMTH 191455Z 1915/2012 18006KT P6SM FEW020
     FM192100 22006KT P6SM FEW025
     FM200400 18004KT P6SM VCSH SCT025 SCT070=